createdAt,value
2022-11-14T00:00:59.073Z,42.25
2022-11-14T00:03:25.780Z,46.60
2022-11-14T00:05:52.450Z,39.67
2022-11-14T00:08:23.204Z,40.63
2022-11-14T00:10:51.562Z,45.80
2022-11-14T00:13:19.662Z,51.25
2022-11-14T00:15:50.398Z,58.53
2022-11-14T00:18:18.773Z,50.63
2022-11-14T00:20:52.234Z,62.00
2022-11-14T00:23:20.364Z,50.13
2022-11-14T00:25:46.999Z,49.08
2022-11-14T00:28:13.973Z,50.63
2022-11-14T00:30:41.117Z,37.83
2022-11-14T00:33:07.724Z,40.65
2022-11-14T00:35:34.424Z,40.70
2022-11-14T00:38:01.319Z,37.42
2022-11-14T00:40:27.904Z,32.85
2022-11-14T00:42:54.871Z,34.50
2022-11-14T00:45:21.784Z,37.83
2022-11-14T00:47:49.035Z,34.92
2022-11-14T00:50:18.552Z,32.00
2022-11-14T00:52:45.386Z,27.17
2022-11-14T00:55:12.014Z,18.15
2022-11-14T00:57:38.828Z,16.15
2022-11-14T01:00:07.292Z,15.80
2022-11-14T01:02:34.039Z,17.30
2022-11-14T01:05:02.303Z,20.60
2022-11-14T01:07:29.127Z,17.08
2022-11-14T01:09:55.824Z,21.05
2022-11-14T01:12:22.578Z,18.73
2022-11-14T01:14:49.311Z,15.88
2022-11-14T01:17:15.935Z,18.73
2022-11-14T01:19:42.773Z,19.48
2022-11-14T01:22:09.576Z,18.48
2022-11-14T01:24:36.187Z,15.60
2022-11-14T01:27:03.306Z,14.65
2022-11-14T01:29:30.328Z,14.88
2022-11-14T01:31:56.946Z,13.75
2022-11-14T01:34:23.747Z,14.98
2022-11-14T01:36:50.852Z,13.57
2022-11-14T01:39:17.498Z,12.60
2022-11-14T01:41:44.311Z,14.23
2022-11-14T01:44:38.082Z,15.55
2022-11-14T01:47:05.848Z,15.98
2022-11-14T01:49:43.000Z,16.05
2022-11-14T01:52:14.478Z,16.15
2022-11-14T01:54:49.488Z,22.35
2022-11-14T01:57:20.404Z,24.45
2022-11-14T01:59:51.852Z,27.63
2022-11-14T02:02:20.944Z,25.15
2022-11-14T02:04:51.776Z,33.78
2022-11-14T02:07:19.372Z,30.02
2022-11-14T02:09:48.894Z,33.67
2022-11-14T02:12:18.009Z,27.73
2022-11-14T02:14:47.080Z,25.45
2022-11-14T02:17:29.153Z,31.15
2022-11-14T02:20:20.899Z,27.67
2022-11-14T02:22:47.789Z,22.13
2022-11-14T02:25:18.558Z,20.48
2022-11-14T02:27:45.723Z,23.42
2022-11-14T02:30:16.701Z,31.02
2022-11-14T02:35:30.198Z,29.42
2022-11-14T02:37:56.923Z,28.95
2022-11-14T02:40:23.586Z,33.35
2022-11-14T02:42:50.652Z,27.95
2022-11-14T02:45:17.310Z,30.48
2022-11-14T02:47:43.899Z,25.33
2022-11-14T02:50:10.903Z,25.92
2022-11-14T02:52:37.477Z,28.35
2022-11-14T02:55:05.414Z,22.60
2022-11-14T02:57:32.309Z,22.85
2022-11-14T02:59:58.906Z,20.55
2022-11-14T03:02:26.099Z,22.45
2022-11-14T03:04:53.038Z,24.38
2022-11-14T03:07:19.659Z,20.27
2022-11-14T03:09:46.620Z,18.30
2022-11-14T03:12:16.843Z,17.33
2022-11-14T03:14:43.967Z,19.38
2022-11-14T03:17:11.035Z,19.58
2022-11-14T03:19:38.923Z,22.27
2022-11-14T03:22:05.663Z,22.80
2022-11-14T03:24:32.322Z,21.70
2022-11-14T03:26:59.250Z,20.58
2022-11-14T03:29:25.853Z,22.13
2022-11-14T03:31:52.492Z,22.88
2022-11-14T03:34:19.658Z,20.55
2022-11-14T03:36:46.274Z,19.33
2022-11-14T03:39:12.884Z,18.48
2022-11-14T03:41:39.692Z,20.65
2022-11-14T03:44:06.292Z,24.20
2022-11-14T03:46:32.916Z,22.58
2022-11-14T03:48:59.594Z,21.13
2022-11-14T03:51:26.148Z,27.45
2022-11-14T03:53:52.761Z,28.20
2022-11-14T03:56:20.037Z,23.48
2022-11-14T03:58:46.630Z,20.65
2022-11-14T04:01:13.326Z,24.52
2022-11-14T04:03:40.125Z,19.92
2022-11-14T04:06:06.751Z,20.85
2022-11-14T04:08:33.652Z,22.23
2022-11-14T04:11:00.856Z,21.38
2022-11-14T04:13:27.493Z,20.38
2022-11-14T04:15:58.676Z,21.48
2022-11-14T04:18:26.197Z,22.77
2022-11-14T04:20:53.618Z,23.02
2022-11-14T04:23:20.443Z,17.27
2022-11-14T04:25:47.603Z,20.98
2022-11-14T04:28:14.659Z,21.23
2022-11-14T04:30:42.429Z,20.38
2022-11-14T04:33:09.116Z,18.98
2022-11-14T04:35:35.728Z,21.20
2022-11-14T04:38:02.799Z,23.75
2022-11-14T04:40:29.646Z,22.52
2022-11-14T04:42:56.220Z,21.83
2022-11-14T04:45:22.844Z,22.40
2022-11-14T04:47:49.965Z,23.05
2022-11-14T04:50:16.611Z,25.70
2022-11-14T04:52:43.204Z,19.95
2022-11-14T04:55:10.503Z,22.90
2022-11-14T04:57:37.151Z,21.08
2022-11-14T05:00:05.051Z,27.58
2022-11-14T05:02:33.150Z,27.48
2022-11-14T05:04:59.752Z,24.73
2022-11-14T05:07:26.401Z,21.52
2022-11-14T05:09:53.313Z,21.30
2022-11-14T05:12:20.383Z,25.20
2022-11-14T05:14:47.087Z,20.50
2022-11-14T05:17:14.072Z,19.63
2022-11-14T05:19:40.660Z,24.58
2022-11-14T05:22:07.331Z,21.17
2022-11-14T05:24:34.396Z,16.55
2022-11-14T05:27:01.030Z,18.08
2022-11-14T05:29:27.652Z,17.70
2022-11-14T05:31:54.375Z,18.10
2022-11-14T05:34:21.031Z,18.55
2022-11-14T05:36:47.595Z,18.05
2022-11-14T05:39:14.334Z,16.73
2022-11-14T05:41:40.934Z,18.30
2022-11-14T05:44:07.675Z,16.17
2022-11-14T05:46:34.489Z,17.50
2022-11-14T05:49:01.391Z,17.30
2022-11-14T05:51:28.088Z,20.70
2022-11-14T05:53:55.555Z,37.60
2022-11-14T05:56:22.407Z,23.73
2022-11-14T05:58:49.032Z,21.60
2022-11-14T06:01:18.686Z,22.70
2022-11-14T06:03:47.617Z,29.67
2022-11-14T06:06:18.569Z,24.48
2022-11-14T06:08:46.212Z,32.40
2022-11-14T06:11:15.278Z,23.67
2022-11-14T06:13:42.913Z,22.13
2022-11-14T06:16:14.875Z,24.55
2022-11-14T06:18:42.335Z,47.58
2022-11-14T06:21:12.809Z,43.65
2022-11-14T06:23:39.561Z,15.52
2022-11-14T06:26:12.807Z,38.65
2022-11-14T06:28:39.658Z,22.10
2022-11-14T06:31:06.347Z,24.02
2022-11-14T06:33:37.415Z,35.63
2022-11-14T06:36:05.887Z,64.40
2022-11-14T06:38:34.586Z,32.22
2022-11-14T06:41:15.056Z,30.77
2022-11-14T06:43:46.042Z,30.42
2022-11-14T06:46:16.172Z,24.52
2022-11-14T06:48:44.103Z,22.75
2022-11-14T06:51:12.495Z,25.17
2022-11-14T06:53:39.926Z,54.65
2022-11-14T06:56:12.501Z,70.47
2022-11-14T06:58:42.176Z,27.30
2022-11-14T07:01:13.093Z,32.75
2022-11-14T07:03:40.273Z,32.65
2022-11-14T07:06:08.911Z,29.00
2022-11-14T07:08:36.119Z,32.88
2022-11-14T07:11:23.022Z,35.72
2022-11-14T07:13:57.795Z,26.58
2022-11-14T07:16:29.602Z,22.50
2022-11-14T07:18:57.992Z,24.88
2022-11-14T07:21:25.931Z,21.00
2022-11-14T07:23:52.764Z,25.38
2022-11-14T07:26:19.384Z,21.80
2022-11-14T07:28:51.809Z,25.33
2022-11-14T07:31:20.526Z,40.67
2022-11-14T07:33:48.068Z,32.53
2022-11-14T07:36:15.936Z,50.00
2022-11-14T07:38:42.963Z,86.30
2022-11-14T07:41:16.647Z,32.53
2022-11-14T07:43:43.638Z,41.13
2022-11-14T07:46:16.762Z,43.58
2022-11-14T07:48:43.847Z,64.00
2022-11-14T07:51:15.682Z,63.00
2022-11-14T07:53:42.898Z,36.30
2022-11-14T07:56:10.499Z,37.50
2022-11-14T07:58:42.050Z,40.63
2022-11-14T08:01:11.069Z,25.13
2022-11-14T08:03:42.266Z,39.20
2022-11-14T08:08:40.501Z,25.45
2022-11-14T08:11:07.641Z,28.52
2022-11-14T08:13:36.221Z,28.02
2022-11-14T08:16:13.367Z,34.90
2022-11-14T08:18:41.166Z,29.10
2022-11-14T08:21:08.356Z,30.48
2022-11-14T08:23:34.970Z,33.65
2022-11-14T08:26:01.737Z,29.48
2022-11-14T08:28:29.242Z,26.95
2022-11-14T08:31:01.313Z,26.45
2022-11-14T08:33:28.138Z,30.52
2022-11-14T08:35:54.851Z,36.63
2022-11-14T08:38:21.614Z,30.08
2022-11-14T08:40:48.242Z,40.42
2022-11-14T08:43:14.819Z,45.05
2022-11-14T08:45:41.619Z,43.03
2022-11-14T08:48:08.366Z,33.65
2022-11-14T08:50:35.152Z,31.50
2022-11-14T08:53:01.771Z,30.90
2022-11-14T08:55:28.475Z,33.25
2022-11-14T08:57:55.373Z,31.63
2022-11-14T09:00:22.264Z,32.08
2022-11-14T09:02:48.988Z,41.58
2022-11-14T09:05:15.864Z,47.47
2022-11-14T09:07:42.537Z,39.55
2022-11-14T09:10:10.007Z,37.83
2022-11-14T09:12:36.750Z,36.25
2022-11-14T09:15:03.483Z,35.72
2022-11-14T09:17:30.202Z,39.53
2022-11-14T09:19:57.243Z,32.00
2022-11-14T09:22:23.927Z,29.20
2022-11-14T09:24:52.125Z,37.75
2022-11-14T09:27:18.908Z,32.42
2022-11-14T09:29:45.689Z,36.97
2022-11-14T09:32:12.389Z,32.92
2022-11-14T09:34:43.005Z,31.23
2022-11-14T09:37:09.884Z,35.42
2022-11-14T09:39:40.672Z,30.30
2022-11-14T09:42:17.518Z,38.00
2022-11-14T09:44:55.851Z,34.65
2022-11-14T09:47:31.534Z,24.63
2022-11-14T09:50:25.914Z,27.80
2022-11-14T09:52:57.232Z,23.83
2022-11-14T09:55:36.520Z,24.02
2022-11-14T09:58:04.516Z,31.63
2022-11-14T10:01:05.022Z,39.42
2022-11-14T10:04:19.103Z,43.22
2022-11-14T10:07:23.960Z,32.38
2022-11-14T10:10:03.958Z,28.27
2022-11-14T10:12:49.108Z,35.88
2022-11-14T10:15:24.110Z,28.05
2022-11-14T10:17:50.945Z,35.25
2022-11-14T10:20:28.543Z,35.20
2022-11-14T10:23:13.525Z,30.38
2022-11-14T10:25:55.824Z,18.63
2022-11-14T10:28:33.728Z,28.83
2022-11-14T10:31:21.045Z,32.90
2022-11-14T10:33:57.830Z,27.33
2022-11-14T10:36:34.892Z,25.95
2022-11-14T10:39:15.524Z,27.73
2022-11-14T10:42:04.552Z,24.50
2022-11-14T10:44:42.484Z,28.15
2022-11-14T10:47:14.800Z,26.88
2022-11-14T10:49:42.364Z,24.73
2022-11-14T10:52:19.545Z,27.73
2022-11-14T10:54:51.819Z,30.90
2022-11-14T10:57:22.231Z,26.45
2022-11-14T10:59:49.319Z,27.20
2022-11-14T11:02:16.231Z,23.80
2022-11-14T11:04:45.423Z,31.88
2022-11-14T11:07:31.964Z,31.10
2022-11-14T11:10:21.274Z,27.65
2022-11-14T11:12:53.171Z,26.38
2022-11-14T11:15:26.593Z,26.52
2022-11-14T11:17:58.821Z,28.90
2022-11-14T11:20:34.814Z,28.55
2022-11-14T11:23:26.374Z,26.88
2022-11-14T11:26:01.817Z,27.83
2022-11-14T11:28:30.806Z,27.92
2022-11-14T11:31:00.522Z,27.88
2022-11-14T11:33:30.681Z,31.30
2022-11-14T11:36:01.317Z,41.80
2022-11-14T11:38:30.703Z,32.55
2022-11-14T11:42:06.257Z,35.20
2022-11-14T11:44:22.140Z,36.75
2022-11-14T11:47:01.103Z,46.65
2022-11-14T11:49:30.531Z,34.72
2022-11-14T11:52:05.246Z,39.30
2022-11-14T11:54:46.694Z,32.13
2022-11-14T11:57:21.466Z,36.25
2022-11-14T12:00:04.100Z,34.78
2022-11-14T12:02:31.488Z,35.22
2022-11-14T12:05:00.747Z,34.83
2022-11-14T12:07:45.202Z,32.47
2022-11-14T12:12:43.011Z,30.20
2022-11-14T12:15:28.732Z,30.27
2022-11-14T12:18:04.821Z,29.05
2022-11-14T12:20:43.283Z,31.45
2022-11-14T12:23:26.646Z,31.88
2022-11-14T12:26:13.703Z,30.98
2022-11-14T12:29:08.047Z,35.13
2022-11-14T12:31:37.308Z,34.20
2022-11-14T12:34:28.012Z,33.78
2022-11-14T12:36:54.904Z,31.33
2022-11-14T12:39:27.196Z,31.15
2022-11-14T12:42:10.903Z,31.20
2022-11-14T12:44:39.463Z,32.23
2022-11-14T12:47:06.051Z,29.45
2022-11-14T12:49:48.024Z,30.67
2022-11-14T12:52:45.323Z,31.70
2022-11-14T12:55:24.590Z,28.75
2022-11-14T12:58:08.717Z,28.70
2022-11-14T13:00:47.022Z,29.25
2022-11-14T13:03:23.744Z,30.00
2022-11-14T13:06:04.190Z,30.45
2022-11-14T13:08:57.114Z,32.13
2022-11-14T13:12:03.671Z,32.60
2022-11-14T13:14:50.726Z,33.97
2022-11-14T13:17:36.259Z,35.25
2022-11-14T13:20:50.893Z,33.97
2022-11-14T13:23:27.083Z,35.30
2022-11-14T13:26:26.336Z,35.42
2022-11-14T13:28:54.167Z,31.55
2022-11-14T13:31:23.274Z,31.30
2022-11-14T13:34:02.212Z,30.40
2022-11-14T13:37:02.249Z,40.03
2022-11-14T13:39:38.848Z,36.60
2022-11-14T13:42:17.535Z,35.97
2022-11-14T13:45:16.822Z,31.55
2022-11-14T13:47:52.259Z,34.40
2022-11-14T13:50:27.648Z,32.25
2022-11-14T13:52:54.815Z,32.88
2022-11-14T13:55:39.869Z,36.03
2022-11-14T13:58:26.652Z,33.85
2022-11-14T14:01:12.187Z,33.13
2022-11-14T14:03:56.392Z,35.40
2022-11-14T14:06:43.277Z,48.83
2022-11-14T14:09:22.969Z,38.28
2022-11-14T14:12:11.064Z,40.38
2022-11-14T14:14:57.508Z,36.22
2022-11-14T14:17:36.500Z,39.25
2022-11-14T14:20:28.021Z,42.33
2022-11-14T14:23:32.582Z,39.10
2022-11-14T14:26:26.960Z,35.22
2022-11-14T14:28:56.695Z,33.95
2022-11-14T14:31:24.446Z,40.78
2022-11-14T14:33:52.428Z,40.17
2022-11-14T14:36:30.026Z,45.28
2022-11-14T14:39:25.387Z,56.25
2022-11-14T14:41:54.617Z,56.15
2022-11-14T14:44:32.237Z,60.50
2022-11-14T14:46:59.171Z,58.92
2022-11-14T14:49:32.553Z,61.88
2022-11-14T14:51:59.271Z,59.83
2022-11-14T14:54:29.836Z,62.92
2022-11-14T14:57:00.710Z,57.45
2022-11-14T14:59:29.723Z,47.55
2022-11-14T15:01:57.694Z,66.70
2022-11-14T15:04:28.857Z,68.65
2022-11-14T15:06:57.523Z,64.63
2022-11-14T15:09:33.077Z,75.75
2022-11-14T15:12:01.462Z,70.68
2022-11-14T15:14:32.020Z,73.72
2022-11-14T15:17:00.087Z,68.47
2022-11-14T15:19:40.328Z,64.45
2022-11-14T15:22:16.007Z,61.33
2022-11-14T15:24:42.821Z,61.03
2022-11-14T15:27:13.408Z,64.53
2022-11-14T15:29:53.842Z,51.53
2022-11-14T15:32:25.508Z,44.35
2022-11-14T15:35:25.984Z,49.63
2022-11-14T15:41:23.639Z,39.55
2022-11-14T15:43:53.246Z,41.50
2022-11-14T15:46:35.844Z,43.75
2022-11-14T15:49:21.258Z,48.08
2022-11-14T15:51:59.646Z,46.75
2022-11-14T15:54:29.133Z,47.65
2022-11-14T15:57:02.031Z,49.50
2022-11-14T15:59:30.859Z,41.03
2022-11-14T16:02:10.777Z,47.55
2022-11-14T16:04:42.937Z,52.08
2022-11-14T16:07:14.684Z,48.63
2022-11-14T16:09:41.680Z,49.30
2022-11-14T16:12:08.384Z,40.45
2022-11-14T16:14:35.304Z,49.88
2022-11-14T16:17:02.184Z,48.35
2022-11-14T16:19:29.202Z,49.63
2022-11-14T16:22:02.736Z,48.20
2022-11-14T16:24:34.003Z,46.42
2022-11-14T16:27:01.394Z,43.58
2022-11-14T16:29:28.451Z,45.38
2022-11-14T16:31:55.426Z,44.22
2022-11-14T16:34:26.475Z,45.35
2022-11-14T16:37:01.298Z,44.20
2022-11-14T16:39:28.746Z,42.53
2022-11-14T16:42:01.885Z,50.25
2022-11-14T16:44:29.553Z,59.78
2022-11-14T16:46:56.287Z,65.28
2022-11-14T16:49:23.050Z,59.20
2022-11-14T16:51:51.392Z,60.20
2022-11-14T16:54:19.493Z,62.10
2022-11-14T16:56:47.349Z,59.97
2022-11-14T16:59:14.308Z,55.53
2022-11-14T17:01:41.388Z,51.78
2022-11-14T17:04:08.131Z,51.70
2022-11-14T17:06:35.005Z,51.00
2022-11-14T17:09:02.703Z,44.72
2022-11-14T17:11:29.582Z,45.72
2022-11-14T17:13:57.150Z,44.60
2022-11-14T17:16:23.923Z,47.10
2022-11-14T17:18:52.358Z,49.38
2022-11-14T17:21:19.116Z,44.40
2022-11-14T17:23:45.864Z,44.55
2022-11-14T17:26:13.843Z,46.78
2022-11-14T17:28:41.610Z,99.85
2022-11-14T17:31:09.270Z,240.75
2022-11-14T17:33:36.633Z,42.53
2022-11-14T17:36:08.695Z,44.25
2022-11-14T17:38:36.652Z,43.10
2022-11-14T17:41:05.985Z,44.53
2022-11-14T17:43:39.486Z,40.15
2022-11-14T17:46:12.630Z,42.67
2022-11-14T17:48:42.432Z,38.78
2022-11-14T17:51:12.617Z,42.35
2022-11-14T17:53:40.107Z,45.75
2022-11-14T17:56:08.007Z,46.80
2022-11-14T17:58:35.196Z,43.72
2022-11-14T18:01:02.009Z,44.63
2022-11-14T18:03:28.955Z,44.83
2022-11-14T18:06:08.242Z,41.92
2022-11-14T18:08:35.972Z,40.97
2022-11-14T18:11:04.768Z,46.53
2022-11-14T18:13:32.327Z,44.17
2022-11-14T18:16:08.567Z,42.90
2022-11-14T18:18:36.865Z,45.03
2022-11-14T18:21:13.379Z,41.85
2022-11-14T18:23:40.178Z,42.40
2022-11-14T18:26:12.058Z,43.70
2022-11-14T18:28:39.030Z,41.92
2022-11-14T18:31:07.590Z,50.50
2022-11-14T18:33:35.830Z,43.05
2022-11-14T18:36:04.727Z,43.80
2022-11-14T18:38:33.090Z,40.03
2022-11-14T18:41:01.440Z,38.60
2022-11-14T18:43:30.715Z,42.97
2022-11-14T18:46:13.188Z,41.53
2022-11-14T18:48:41.686Z,42.58
2022-11-14T18:51:21.567Z,38.05
2022-11-14T18:53:48.766Z,40.53
2022-11-14T18:56:17.853Z,38.08
2022-11-14T18:58:45.143Z,37.72
2022-11-14T19:01:29.728Z,39.40
2022-11-14T19:04:01.591Z,37.10
2022-11-14T19:06:30.663Z,38.47
2022-11-14T19:08:58.744Z,40.63
2022-11-14T19:11:43.964Z,37.75
2022-11-14T19:14:11.405Z,36.63
2022-11-14T19:16:38.614Z,41.38
2022-11-14T19:19:07.043Z,41.20
2022-11-14T19:21:34.354Z,41.47
2022-11-14T19:24:01.623Z,38.88
2022-11-14T19:26:29.408Z,42.03
2022-11-14T19:28:57.116Z,42.05
2022-11-14T19:31:23.816Z,40.78
2022-11-14T19:33:50.597Z,38.95
2022-11-14T19:36:38.519Z,40.63
2022-11-14T19:39:07.220Z,41.55
2022-11-14T19:41:33.885Z,40.78
2022-11-14T19:44:02.657Z,41.47
2022-11-14T19:46:29.688Z,41.80
2022-11-14T19:48:58.087Z,38.30
2022-11-14T19:51:25.555Z,39.70
2022-11-14T19:53:55.705Z,39.40
2022-11-14T19:56:23.475Z,36.40
2022-11-14T19:58:52.846Z,38.05
2022-11-14T20:01:22.587Z,29.73
2022-11-14T20:04:00.951Z,30.38
2022-11-14T20:06:34.058Z,28.95
2022-11-14T20:09:04.347Z,32.33
2022-11-14T20:11:31.648Z,29.55
2022-11-14T20:13:59.341Z,31.60
2022-11-14T20:16:28.305Z,33.95
2022-11-14T20:18:59.149Z,31.27
2022-11-14T20:21:28.554Z,28.85
2022-11-14T20:23:55.237Z,35.08
2022-11-14T20:26:22.999Z,32.13
2022-11-14T20:28:52.295Z,33.70
2022-11-14T20:31:22.779Z,32.00
2022-11-14T20:33:50.737Z,30.52
2022-11-14T20:36:20.835Z,25.80
2022-11-14T20:38:48.492Z,25.77
2022-11-14T20:41:16.031Z,28.85
2022-11-14T20:43:43.684Z,33.55
2022-11-14T20:46:19.091Z,31.38
2022-11-14T20:48:48.264Z,36.95
2022-11-14T20:51:19.167Z,35.22
2022-11-14T20:53:46.244Z,31.08
2022-11-14T20:56:14.064Z,32.63
2022-11-14T20:58:41.805Z,33.17
2022-11-14T21:01:09.046Z,33.85
2022-11-14T21:03:36.491Z,32.50
2022-11-14T21:06:03.896Z,30.88
2022-11-14T21:08:30.947Z,26.50
2022-11-14T21:11:03.586Z,33.85
2022-11-14T21:13:49.242Z,31.75
2022-11-14T21:16:19.362Z,35.92
2022-11-14T21:18:48.005Z,32.08
2022-11-14T21:21:17.862Z,35.60
2022-11-14T21:23:46.227Z,32.80
2022-11-14T21:26:27.989Z,34.90
2022-11-14T21:28:57.914Z,31.27
2022-11-14T21:31:33.678Z,34.47
2022-11-14T21:34:03.078Z,31.42
2022-11-14T21:36:44.447Z,33.13
2022-11-14T21:39:15.261Z,33.58
2022-11-14T21:41:43.407Z,33.15
2022-11-14T21:44:15.880Z,31.08
2022-11-14T21:46:43.386Z,31.73
2022-11-14T21:49:10.285Z,28.77
2022-11-14T21:51:36.972Z,32.15
2022-11-14T21:54:03.937Z,30.70
2022-11-14T21:56:32.361Z,34.30
2022-11-14T21:59:13.367Z,30.17
2022-11-14T22:02:07.147Z,32.22
2022-11-14T22:04:34.719Z,34.05
2022-11-14T22:07:03.399Z,35.58
2022-11-14T22:09:30.733Z,34.00
2022-11-14T22:11:58.164Z,38.35
2022-11-14T22:14:25.387Z,34.35
2022-11-14T22:16:52.008Z,33.28
2022-11-14T22:19:19.174Z,35.22
2022-11-14T22:21:46.039Z,32.97
2022-11-14T22:24:12.724Z,32.65
2022-11-14T22:26:40.554Z,33.70
2022-11-14T22:29:08.199Z,33.83
2022-11-14T22:31:35.137Z,33.45
2022-11-14T22:34:02.391Z,31.88
2022-11-14T22:36:29.217Z,35.80
2022-11-14T22:38:57.054Z,36.67
2022-11-14T22:41:30.744Z,31.42
2022-11-14T22:43:58.849Z,36.15
2022-11-14T22:46:25.709Z,34.92
2022-11-14T22:48:52.426Z,33.22
2022-11-14T22:51:23.908Z,28.23
2022-11-14T22:53:52.681Z,29.83
2022-11-14T22:56:21.610Z,25.58
2022-11-14T22:58:48.844Z,26.27
2022-11-14T23:01:22.888Z,28.35
2022-11-14T23:03:56.816Z,27.90
2022-11-14T23:06:24.638Z,22.70
2022-11-14T23:08:52.208Z,20.95
2022-11-14T23:11:22.569Z,23.90
2022-11-14T23:13:52.329Z,21.00
2022-11-14T23:16:21.736Z,23.40
2022-11-14T23:18:49.656Z,22.65
2022-11-14T23:21:21.943Z,20.08
2022-11-14T23:23:56.111Z,22.88
2022-11-14T23:28:49.888Z,17.73
2022-11-14T23:31:23.235Z,22.48
2022-11-14T23:33:51.565Z,25.90
2022-11-14T23:36:18.276Z,22.23
2022-11-14T23:38:45.112Z,22.73
2022-11-14T23:41:18.261Z,25.77
2022-11-14T23:43:45.583Z,20.65
2022-11-14T23:46:12.595Z,25.02
2022-11-14T23:48:39.505Z,26.55
2022-11-14T23:51:06.311Z,22.23
2022-11-14T23:53:33.285Z,20.95
2022-11-14T23:56:02.580Z,21.75
2022-11-14T23:58:30.266Z,20.42
